sensor_id;sensor_type;location;lat;lon;timestamp;pressure;altitude;pressure_sealevel;temperature;humidity
40245;BME280;25963;42.694;23.600;2022-12-18T00:01:23;95931.44;;;6.45;100.00
40245;BME280;25963;42.694;23.600;2022-12-18T00:03:49;95926.19;;;6.45;100.00
40245;BME280;25963;42.694;23.600;2022-12-18T00:06:15;95939.16;;;6.46;100.00
40245;BME280;25963;42.694;23.600;2022-12-18T00:08:42;95938.06;;;6.32;100.00
40245;BME280;25963;42.694;23.600;2022-12-18T00:11:10;95923.03;;;6.26;100.00
40245;BME280;25963;42.694;23.600;2022-12-18T00:13:36;95944.69;;;6.43;100.00
40245;BME280;25963;42.694;23.600;2022-12-18T00:16:07;95945.25;;;6.30;100.00
40245;BME280;25963;42.694;23.600;2022-12-18T00:18:34;95949.88;;;6.28;100.00
40245;BME280;25963;42.694;23.600;2022-12-18T00:21:01;95950.50;;;6.30;100.00
40245;BME280;25963;42.694;23.600;2022-12-18T00:23:27;95953.81;;;6.24;100.00
40245;BME280;25963;42.694;23.600;2022-12-18T00:25:53;95962.00;;;6.21;100.00
40245;BME280;25963;42.694;23.600;2022-12-18T00:28:18;95965.44;;;6.22;100.00
40245;BME280;25963;42.694;23.600;2022-12-18T00:30:44;95965.31;;;6.15;100.00
40245;BME280;25963;42.694;23.600;2022-12-18T00:33:09;95962.91;;;6.05;100.00
40245;BME280;25963;42.694;23.600;2022-12-18T00:35:35;95973.88;;;5.92;100.00
40245;BME280;25963;42.694;23.600;2022-12-18T00:38:00;95973.09;;;5.84;100.00
40245;BME280;25963;42.694;23.600;2022-12-18T00:40:25;95973.38;;;5.89;100.00
40245;BME280;25963;42.694;23.600;2022-12-18T00:42:51;95973.44;;;5.72;100.00
40245;BME280;25963;42.694;23.600;2022-12-18T00:47:49;95967.81;;;5.92;100.00
40245;BME280;25963;42.694;23.600;2022-12-18T00:50:14;95976.00;;;5.89;100.00
40245;BME280;25963;42.694;23.600;2022-12-18T00:52:40;95973.91;;;5.84;100.00
40245;BME280;25963;42.694;23.600;2022-12-18T00:55:06;95984.22;;;5.78;100.00
40245;BME280;25963;42.694;23.600;2022-12-18T00:57:31;95980.44;;;5.80;100.00
40245;BME280;25963;42.694;23.600;2022-12-18T00:59:57;95982.91;;;5.82;100.00
40245;BME280;25963;42.694;23.600;2022-12-18T01:02:22;95986.19;;;5.84;100.00
40245;BME280;25963;42.694;23.600;2022-12-18T01:04:48;95988.28;;;5.88;100.00
40245;BME280;25963;42.694;23.600;2022-12-18T01:07:13;95992.09;;;5.78;100.00
40245;BME280;25963;42.694;23.600;2022-12-18T01:09:38;95994.88;;;5.76;100.00
40245;BME280;25963;42.694;23.600;2022-12-18T01:12:04;95996.66;;;5.67;100.00
40245;BME280;25963;42.694;23.600;2022-12-18T01:14:30;95998.97;;;5.70;100.00
40245;BME280;25963;42.694;23.600;2022-12-18T01:16:55;95997.47;;;5.68;100.00
40245;BME280;25963;42.694;23.600;2022-12-18T01:19:21;96006.19;;;5.60;100.00
40245;BME280;25963;42.694;23.600;2022-12-18T01:21:46;96000.28;;;5.75;100.00
40245;BME280;25963;42.694;23.600;2022-12-18T01:24:12;96004.84;;;5.72;100.00
40245;BME280;25963;42.694;23.600;2022-12-18T01:26:37;96001.91;;;5.67;100.00
40245;BME280;25963;42.694;23.600;2022-12-18T01:29:04;96003.38;;;5.78;100.00
40245;BME280;25963;42.694;23.600;2022-12-18T01:31:32;96005.34;;;5.68;100.00
40245;BME280;25963;42.694;23.600;2022-12-18T01:34:00;96016.66;;;5.60;100.00
40245;BME280;25963;42.694;23.600;2022-12-18T01:36:28;96010.75;;;5.58;100.00
40245;BME280;25963;42.694;23.600;2022-12-18T01:38:54;96010.56;;;5.68;100.00
40245;BME280;25963;42.694;23.600;2022-12-18T01:41:24;96017.47;;;5.61;100.00
40245;BME280;25963;42.694;23.600;2022-12-18T01:44:00;96010.44;;;5.69;100.00
40245;BME280;25963;42.694;23.600;2022-12-18T01:46:27;96023.53;;;5.37;100.00
40245;BME280;25963;42.694;23.600;2022-12-18T01:48:56;96024.03;;;5.57;100.00
40245;BME280;25963;42.694;23.600;2022-12-18T01:51:22;96011.41;;;5.44;100.00
40245;BME280;25963;42.694;23.600;2022-12-18T01:53:48;96022.22;;;5.57;100.00
40245;BME280;25963;42.694;23.600;2022-12-18T01:56:16;96042.66;;;5.62;100.00
40245;BME280;25963;42.694;23.600;2022-12-18T01:59:03;96029.88;;;5.59;100.00
40245;BME280;25963;42.694;23.600;2022-12-18T02:01:31;96036.13;;;5.49;100.00
40245;BME280;25963;42.694;23.600;2022-12-18T02:04:21;96034.50;;;5.48;100.00
40245;BME280;25963;42.694;23.600;2022-12-18T02:06:59;96042.34;;;5.57;100.00
40245;BME280;25963;42.694;23.600;2022-12-18T02:09:43;96044.63;;;5.52;100.00
40245;BME280;25963;42.694;23.600;2022-12-18T02:12:19;96048.03;;;5.44;100.00
40245;BME280;25963;42.694;23.600;2022-12-18T02:17:22;96045.59;;;5.26;100.00
40245;BME280;25963;42.694;23.600;2022-12-18T02:28:10;96062.59;;;5.38;100.00
40245;BME280;25963;42.694;23.600;2022-12-18T02:30:37;96060.97;;;5.37;100.00
40245;BME280;25963;42.694;23.600;2022-12-18T02:33:06;96054.28;;;5.26;100.00
40245;BME280;25963;42.694;23.600;2022-12-18T02:35:34;96062.78;;;5.37;100.00
40245;BME280;25963;42.694;23.600;2022-12-18T02:38:01;96072.75;;;5.33;100.00
40245;BME280;25963;42.694;23.600;2022-12-18T02:40:28;96072.53;;;5.02;100.00
40245;BME280;25963;42.694;23.600;2022-12-18T02:42:55;96073.84;;;4.98;100.00
40245;BME280;25963;42.694;23.600;2022-12-18T02:45:20;96053.72;;;4.98;100.00
40245;BME280;25963;42.694;23.600;2022-12-18T02:47:48;96074.00;;;5.04;100.00
40245;BME280;25963;42.694;23.600;2022-12-18T02:53:14;96079.72;;;5.00;100.00
40245;BME280;25963;42.694;23.600;2022-12-18T02:58:26;96089.38;;;5.08;100.00
40245;BME280;25963;42.694;23.600;2022-12-18T03:01:01;96088.53;;;4.99;100.00
40245;BME280;25963;42.694;23.600;2022-12-18T03:03:51;96085.59;;;5.02;100.00
40245;BME280;25963;42.694;23.600;2022-12-18T03:06:56;96085.59;;;4.94;100.00
40245;BME280;25963;42.694;23.600;2022-12-18T03:09:34;96089.34;;;4.91;100.00
40245;BME280;25963;42.694;23.600;2022-12-18T03:12:34;96096.84;;;4.86;100.00
40245;BME280;25963;42.694;23.600;2022-12-18T03:15:14;96094.06;;;4.79;100.00
40245;BME280;25963;42.694;23.600;2022-12-18T03:17:46;96092.53;;;4.69;100.00
40245;BME280;25963;42.694;23.600;2022-12-18T03:20:17;96096.13;;;4.68;100.00
40245;BME280;25963;42.694;23.600;2022-12-18T03:22:51;96100.50;;;4.59;100.00
40245;BME280;25963;42.694;23.600;2022-12-18T03:25:19;96104.13;;;4.66;100.00
40245;BME280;25963;42.694;23.600;2022-12-18T03:27:49;96105.78;;;4.75;100.00
40245;BME280;25963;42.694;23.600;2022-12-18T03:30:17;96107.25;;;4.78;100.00
40245;BME280;25963;42.694;23.600;2022-12-18T03:32:48;96123.84;;;4.61;100.00
40245;BME280;25963;42.694;23.600;2022-12-18T03:35:20;96128.25;;;4.52;100.00
40245;BME280;25963;42.694;23.600;2022-12-18T03:37:46;96115.38;;;4.58;100.00
40245;BME280;25963;42.694;23.600;2022-12-18T03:40:12;96130.22;;;4.58;100.00
40245;BME280;25963;42.694;23.600;2022-12-18T03:45:32;96137.47;;;4.38;100.00
40245;BME280;25963;42.694;23.600;2022-12-18T03:56:08;96143.75;;;4.53;100.00
40245;BME280;25963;42.694;23.600;2022-12-18T03:58:35;96152.03;;;4.41;100.00
40245;BME280;25963;42.694;23.600;2022-12-18T04:01:05;96151.22;;;4.48;100.00
40245;BME280;25963;42.694;23.600;2022-12-18T04:03:34;96141.38;;;4.34;100.00
40245;BME280;25963;42.694;23.600;2022-12-18T04:06:01;96148.47;;;4.50;100.00
40245;BME280;25963;42.694;23.600;2022-12-18T04:08:28;96151.34;;;4.65;100.00
40245;BME280;25963;42.694;23.600;2022-12-18T04:10:54;96156.06;;;4.61;100.00
40245;BME280;25963;42.694;23.600;2022-12-18T04:13:30;96153.28;;;4.63;100.00
40245;BME280;25963;42.694;23.600;2022-12-18T04:15:57;96151.84;;;4.42;100.00
40245;BME280;25963;42.694;23.600;2022-12-18T04:18:22;96163.03;;;4.26;100.00
40245;BME280;25963;42.694;23.600;2022-12-18T04:20:47;96163.91;;;4.35;100.00
40245;BME280;25963;42.694;23.600;2022-12-18T04:23:13;96165.19;;;4.31;100.00
40245;BME280;25963;42.694;23.600;2022-12-18T04:25:38;96174.59;;;4.24;100.00
40245;BME280;25963;42.694;23.600;2022-12-18T04:28:04;96173.97;;;4.30;100.00
40245;BME280;25963;42.694;23.600;2022-12-18T04:30:29;96176.47;;;4.31;100.00
40245;BME280;25963;42.694;23.600;2022-12-18T04:32:54;96179.00;;;4.23;100.00
40245;BME280;25963;42.694;23.600;2022-12-18T04:35:20;96176.19;;;4.17;100.00
40245;BME280;25963;42.694;23.600;2022-12-18T04:37:45;96183.66;;;4.11;100.00
40245;BME280;25963;42.694;23.600;2022-12-18T04:40:11;96182.66;;;4.12;100.00
40245;BME280;25963;42.694;23.600;2022-12-18T04:42:37;96179.78;;;3.98;100.00
40245;BME280;25963;42.694;23.600;2022-12-18T04:45:04;96197.00;;;4.08;100.00
40245;BME280;25963;42.694;23.600;2022-12-18T04:47:30;96193.41;;;4.09;100.00
40245;BME280;25963;42.694;23.600;2022-12-18T04:49:55;96200.34;;;4.19;100.00
40245;BME280;25963;42.694;23.600;2022-12-18T04:52:21;96201.63;;;4.15;100.00
40245;BME280;25963;42.694;23.600;2022-12-18T04:54:46;96208.72;;;4.22;100.00
40245;BME280;25963;42.694;23.600;2022-12-18T04:57:12;96225.72;;;4.08;100.00
40245;BME280;25963;42.694;23.600;2022-12-18T04:59:37;96224.16;;;4.16;100.00
40245;BME280;25963;42.694;23.600;2022-12-18T05:02:03;96230.53;;;4.13;100.00
40245;BME280;25963;42.694;23.600;2022-12-18T05:04:28;96223.41;;;4.23;100.00
40245;BME280;25963;42.694;23.600;2022-12-18T05:06:53;96232.06;;;4.06;100.00
40245;BME280;25963;42.694;23.600;2022-12-18T05:09:19;96241.09;;;4.11;100.00
40245;BME280;25963;42.694;23.600;2022-12-18T05:11:44;96246.94;;;4.05;100.00
40245;BME280;25963;42.694;23.600;2022-12-18T05:14:10;96246.50;;;4.10;100.00
40245;BME280;25963;42.694;23.600;2022-12-18T05:16:35;96253.25;;;4.21;100.00
40245;BME280;25963;42.694;23.600;2022-12-18T05:19:00;96253.25;;;4.21;100.00
40245;BME280;25963;42.694;23.600;2022-12-18T05:21:26;96255.56;;;4.06;100.00
40245;BME280;25963;42.694;23.600;2022-12-18T05:23:51;96265.22;;;4.05;100.00
40245;BME280;25963;42.694;23.600;2022-12-18T05:26:17;96267.19;;;4.29;100.00
40245;BME280;25963;42.694;23.600;2022-12-18T05:28:44;96266.53;;;4.27;100.00
40245;BME280;25963;42.694;23.600;2022-12-18T05:31:09;96267.38;;;4.28;100.00
40245;BME280;25963;42.694;23.600;2022-12-18T05:33:35;96271.91;;;4.26;100.00
40245;BME280;25963;42.694;23.600;2022-12-18T05:36:05;96275.88;;;4.12;100.00
40245;BME280;25963;42.694;23.600;2022-12-18T05:38:32;96277.28;;;4.06;100.00
40245;BME280;25963;42.694;23.600;2022-12-18T05:40:58;96282.75;;;4.13;100.00
40245;BME280;25963;42.694;23.600;2022-12-18T05:43:24;96286.09;;;4.05;100.00
40245;BME280;25963;42.694;23.600;2022-12-18T05:45:51;96293.72;;;3.99;100.00
40245;BME280;25963;42.694;23.600;2022-12-18T05:48:17;96299.97;;;4.06;100.00
40245;BME280;25963;42.694;23.600;2022-12-18T05:50:44;96290.88;;;3.92;100.00
40245;BME280;25963;42.694;23.600;2022-12-18T05:53:17;96294.66;;;3.98;100.00
40245;BME280;25963;42.694;23.600;2022-12-18T05:55:45;96299.16;;;4.05;100.00
40245;BME280;25963;42.694;23.600;2022-12-18T05:58:12;96306.75;;;3.99;100.00
40245;BME280;25963;42.694;23.600;2022-12-18T06:00:39;96307.06;;;3.96;100.00
40245;BME280;25963;42.694;23.600;2022-12-18T06:03:06;96301.03;;;3.95;100.00
40245;BME280;25963;42.694;23.600;2022-12-18T06:05:40;96309.97;;;3.93;100.00
40245;BME280;25963;42.694;23.600;2022-12-18T06:08:06;96318.38;;;3.86;100.00
40245;BME280;25963;42.694;23.600;2022-12-18T06:10:32;96322.84;;;3.94;100.00
40245;BME280;25963;42.694;23.600;2022-12-18T06:12:58;96319.34;;;4.03;100.00
40245;BME280;25963;42.694;23.600;2022-12-18T06:15:23;96323.69;;;4.12;100.00
40245;BME280;25963;42.694;23.600;2022-12-18T06:17:49;96323.03;;;3.93;100.00
40245;BME280;25963;42.694;23.600;2022-12-18T06:20:15;96334.06;;;4.04;100.00
40245;BME280;25963;42.694;23.600;2022-12-18T06:22:40;96337.63;;;4.03;100.00
40245;BME280;25963;42.694;23.600;2022-12-18T06:25:06;96333.06;;;3.87;100.00
40245;BME280;25963;42.694;23.600;2022-12-18T06:27:32;96336.88;;;3.93;100.00
40245;BME280;25963;42.694;23.600;2022-12-18T06:29:59;96334.00;;;3.69;100.00
40245;BME280;25963;42.694;23.600;2022-12-18T06:32:24;96344.50;;;3.86;100.00
40245;BME280;25963;42.694;23.600;2022-12-18T06:34:50;96348.06;;;3.85;100.00
40245;BME280;25963;42.694;23.600;2022-12-18T06:37:15;96349.72;;;3.86;100.00
40245;BME280;25963;42.694;23.600;2022-12-18T06:39:40;96347.63;;;3.90;100.00
40245;BME280;25963;42.694;23.600;2022-12-18T06:42:06;96350.72;;;3.76;100.00
40245;BME280;25963;42.694;23.600;2022-12-18T06:44:31;96351.81;;;3.83;100.00
40245;BME280;25963;42.694;23.600;2022-12-18T06:46:57;96350.03;;;3.74;100.00
40245;BME280;25963;42.694;23.600;2022-12-18T06:49:22;96360.41;;;3.65;100.00
40245;BME280;25963;42.694;23.600;2022-12-18T06:51:47;96358.94;;;3.81;100.00
40245;BME280;25963;42.694;23.600;2022-12-18T06:54:13;96360.75;;;3.80;100.00
40245;BME280;25963;42.694;23.600;2022-12-18T06:56:38;96356.03;;;3.84;100.00
40245;BME280;25963;42.694;23.600;2022-12-18T06:59:04;96368.94;;;3.85;100.00
40245;BME280;25963;42.694;23.600;2022-12-18T07:01:29;96364.28;;;3.89;100.00
40245;BME280;25963;42.694;23.600;2022-12-18T07:03:56;96350.72;;;3.76;100.00
40245;BME280;25963;42.694;23.600;2022-12-18T07:06:23;96364.06;;;3.73;100.00
40245;BME280;25963;42.694;23.600;2022-12-18T07:08:50;96360.47;;;3.74;100.00
40245;BME280;25963;42.694;23.600;2022-12-18T07:11:16;96363.94;;;3.74;100.00
40245;BME280;25963;42.694;23.600;2022-12-18T07:13:42;96365.97;;;3.71;100.00
40245;BME280;25963;42.694;23.600;2022-12-18T07:16:13;96370.91;;;3.74;100.00
40245;BME280;25963;42.694;23.600;2022-12-18T07:18:39;96372.53;;;3.84;100.00
40245;BME280;25963;42.694;23.600;2022-12-18T07:21:10;96376.34;;;3.90;100.00
40245;BME280;25963;42.694;23.600;2022-12-18T07:23:36;96372.41;;;3.76;100.00
40245;BME280;25963;42.694;23.600;2022-12-18T07:26:08;96369.38;;;3.81;100.00
40245;BME280;25963;42.694;23.600;2022-12-18T07:28:35;96373.63;;;3.82;100.00
40245;BME280;25963;42.694;23.600;2022-12-18T07:31:09;96385.19;;;3.79;100.00
40245;BME280;25963;42.694;23.600;2022-12-18T07:33:35;96390.84;;;3.75;100.00
40245;BME280;25963;42.694;23.600;2022-12-18T07:36:03;96388.28;;;3.65;100.00
40245;BME280;25963;42.694;23.600;2022-12-18T07:38:29;96394.16;;;3.67;100.00
40245;BME280;25963;42.694;23.600;2022-12-18T07:40:54;96406.41;;;3.66;100.00
40245;BME280;25963;42.694;23.600;2022-12-18T07:43:20;96408.88;;;3.68;100.00
40245;BME280;25963;42.694;23.600;2022-12-18T07:45:49;96407.44;;;3.74;100.00
40245;BME280;25963;42.694;23.600;2022-12-18T07:48:14;96409.94;;;3.75;100.00
40245;BME280;25963;42.694;23.600;2022-12-18T07:50:39;96411.16;;;3.81;100.00
40245;BME280;25963;42.694;23.600;2022-12-18T07:53:05;96412.97;;;3.71;100.00
40245;BME280;25963;42.694;23.600;2022-12-18T07:55:31;96419.94;;;3.80;100.00
40245;BME280;25963;42.694;23.600;2022-12-18T07:57:56;96425.69;;;3.83;100.00
40245;BME280;25963;42.694;23.600;2022-12-18T08:00:22;96419.66;;;3.83;100.00
40245;BME280;25963;42.694;23.600;2022-12-18T08:02:47;96427.34;;;3.84;100.00
40245;BME280;25963;42.694;23.600;2022-12-18T08:05:13;96434.47;;;3.82;100.00
40245;BME280;25963;42.694;23.600;2022-12-18T08:07:38;96434.00;;;3.69;100.00
40245;BME280;25963;42.694;23.600;2022-12-18T08:10:04;96444.97;;;3.73;100.00
40245;BME280;25963;42.694;23.600;2022-12-18T08:12:30;96443.50;;;3.60;100.00
40245;BME280;25963;42.694;23.600;2022-12-18T08:14:58;96442.75;;;3.78;100.00
40245;BME280;25963;42.694;23.600;2022-12-18T08:17:23;96453.31;;;3.86;100.00
40245;BME280;25963;42.694;23.600;2022-12-18T08:19:49;96441.50;;;3.82;100.00
40245;BME280;25963;42.694;23.600;2022-12-18T08:22:14;96459.31;;;3.96;100.00
40245;BME280;25963;42.694;23.600;2022-12-18T08:24:40;96464.53;;;3.96;100.00
40245;BME280;25963;42.694;23.600;2022-12-18T08:27:05;96453.03;;;3.89;100.00
40245;BME280;25963;42.694;23.600;2022-12-18T08:29:31;96451.34;;;3.88;100.00
40245;BME280;25963;42.694;23.600;2022-12-18T08:31:57;96460.59;;;3.82;100.00
40245;BME280;25963;42.694;23.600;2022-12-18T08:34:22;96460.97;;;3.87;100.00
40245;BME280;25963;42.694;23.600;2022-12-18T08:36:48;96462.50;;;3.90;100.00
40245;BME280;25963;42.694;23.600;2022-12-18T08:39:13;96467.03;;;3.88;100.00
40245;BME280;25963;42.694;23.600;2022-12-18T08:41:38;96470.16;;;4.01;100.00
40245;BME280;25963;42.694;23.600;2022-12-18T08:44:04;96474.00;;;3.97;100.00
40245;BME280;25963;42.694;23.600;2022-12-18T08:46:48;96480.72;;;4.00;100.00
40245;BME280;25963;42.694;23.600;2022-12-18T08:49:13;96475.78;;;3.97;100.00
40245;BME280;25963;42.694;23.600;2022-12-18T08:51:39;96478.56;;;3.85;100.00
40245;BME280;25963;42.694;23.600;2022-12-18T08:54:05;96468.97;;;3.86;100.00
40245;BME280;25963;42.694;23.600;2022-12-18T08:56:31;96473.22;;;3.87;100.00
40245;BME280;25963;42.694;23.600;2022-12-18T08:58:56;96473.91;;;3.89;100.00
40245;BME280;25963;42.694;23.600;2022-12-18T09:01:22;96478.59;;;3.76;100.00
40245;BME280;25963;42.694;23.600;2022-12-18T09:03:49;96475.59;;;3.80;100.00
40245;BME280;25963;42.694;23.600;2022-12-18T09:06:17;96477.09;;;3.83;100.00
40245;BME280;25963;42.694;23.600;2022-12-18T09:08:44;96469.25;;;3.83;100.00
40245;BME280;25963;42.694;23.600;2022-12-18T09:11:24;96476.13;;;3.84;100.00
40245;BME280;25963;42.694;23.600;2022-12-18T09:13:50;96470.22;;;3.82;100.00
40245;BME280;25963;42.694;23.600;2022-12-18T09:16:16;96470.44;;;3.88;100.00
40245;BME280;25963;42.694;23.600;2022-12-18T09:18:42;96469.06;;;3.94;100.00
40245;BME280;25963;42.694;23.600;2022-12-18T09:21:13;96477.13;;;4.01;100.00
40245;BME280;25963;42.694;23.600;2022-12-18T09:23:39;96472.00;;;4.09;100.00
40245;BME280;25963;42.694;23.600;2022-12-18T09:26:04;96479.03;;;4.08;100.00
40245;BME280;25963;42.694;23.600;2022-12-18T09:28:30;96477.09;;;4.10;100.00
40245;BME280;25963;42.694;23.600;2022-12-18T09:30:55;96475.66;;;3.98;100.00
40245;BME280;25963;42.694;23.600;2022-12-18T09:33:21;96476.88;;;3.94;100.00
40245;BME280;25963;42.694;23.600;2022-12-18T09:35:46;96483.69;;;4.15;100.00
40245;BME280;25963;42.694;23.600;2022-12-18T09:38:14;96480.09;;;4.16;100.00
40245;BME280;25963;42.694;23.600;2022-12-18T09:40:45;96482.84;;;4.14;100.00
40245;BME280;25963;42.694;23.600;2022-12-18T09:43:40;96481.16;;;4.23;100.00
40245;BME280;25963;42.694;23.600;2022-12-18T09:46:11;96482.13;;;4.22;100.00
40245;BME280;25963;42.694;23.600;2022-12-18T09:48:42;96480.34;;;4.22;100.00
40245;BME280;25963;42.694;23.600;2022-12-18T09:51:15;96482.56;;;4.17;100.00
40245;BME280;25963;42.694;23.600;2022-12-18T09:53:55;96483.56;;;4.06;100.00
40245;BME280;25963;42.694;23.600;2022-12-18T09:56:27;96471.72;;;4.12;100.00
40245;BME280;25963;42.694;23.600;2022-12-18T09:59:00;96461.09;;;3.96;100.00
40245;BME280;25963;42.694;23.600;2022-12-18T10:01:28;96467.47;;;4.11;100.00
40245;BME280;25963;42.694;23.600;2022-12-18T10:03:54;96463.84;;;4.22;100.00
40245;BME280;25963;42.694;23.600;2022-12-18T10:12:08;96460.72;;;4.36;100.00
40245;BME280;25963;42.694;23.600;2022-12-18T10:25:34;96467.25;;;4.50;100.00
40245;BME280;25963;42.694;23.600;2022-12-18T10:28:15;96459.81;;;4.55;100.00
40245;BME280;25963;42.694;23.600;2022-12-18T10:30:41;96460.97;;;4.61;100.00
40245;BME280;25963;42.694;23.600;2022-12-18T10:33:12;96461.28;;;4.57;100.00
40245;BME280;25963;42.694;23.600;2022-12-18T10:35:41;96463.84;;;4.67;100.00
40245;BME280;25963;42.694;23.600;2022-12-18T10:38:22;96457.31;;;4.53;100.00
40245;BME280;25963;42.694;23.600;2022-12-18T10:41:04;96460.97;;;4.61;100.00
40245;BME280;25963;42.694;23.600;2022-12-18T10:51:06;96449.41;;;4.63;100.00
40245;BME280;25963;42.694;23.600;2022-12-18T10:53:35;96451.72;;;4.48;100.00
40245;BME280;25963;42.694;23.600;2022-12-18T10:56:03;96451.28;;;4.53;100.00
40245;BME280;25963;42.694;23.600;2022-12-18T10:58:35;96455.84;;;4.69;100.00
40245;BME280;25963;42.694;23.600;2022-12-18T11:01:11;96452.19;;;4.79;100.00
40245;BME280;25963;42.694;23.600;2022-12-18T11:06:13;96454.88;;;4.88;100.00
40245;BME280;25963;42.694;23.600;2022-12-18T11:08:41;96459.88;;;4.81;100.00
40245;BME280;25963;42.694;23.600;2022-12-18T11:11:19;96448.69;;;4.71;100.00
40245;BME280;25963;42.694;23.600;2022-12-18T11:16:23;96456.91;;;4.76;100.00
40245;BME280;25963;42.694;23.600;2022-12-18T11:18:49;96456.00;;;4.67;100.00
40245;BME280;25963;42.694;23.600;2022-12-18T11:21:15;96458.53;;;4.77;100.00
40245;BME280;25963;42.694;23.600;2022-12-18T11:23:51;96457.72;;;4.76;100.00
40245;BME280;25963;42.694;23.600;2022-12-18T11:26:18;96454.81;;;4.62;100.00
40245;BME280;25963;42.694;23.600;2022-12-18T11:28:51;96452.19;;;4.79;100.00
40245;BME280;25963;42.694;23.600;2022-12-18T11:31:25;96451.91;;;4.83;100.00
40245;BME280;25963;42.694;23.600;2022-12-18T11:34:20;96457.22;;;4.73;100.00
40245;BME280;25963;42.694;23.600;2022-12-18T11:36:48;96453.63;;;4.74;100.00
40245;BME280;25963;42.694;23.600;2022-12-18T11:39:28;96449.81;;;4.86;100.00
40245;BME280;25963;42.694;23.600;2022-12-18T11:42:00;96457.94;;;4.83;100.00
40245;BME280;25963;42.694;23.600;2022-12-18T11:44:55;96457.25;;;4.99;100.00
40245;BME280;25963;42.694;23.600;2022-12-18T11:47:44;96453.00;;;4.80;100.00
40245;BME280;25963;42.694;23.600;2022-12-18T11:50:17;96447.19;;;4.86;100.00
40245;BME280;25963;42.694;23.600;2022-12-18T11:52:44;96452.50;;;4.94;100.00
40245;BME280;25963;42.694;23.600;2022-12-18T11:55:12;96444.19;;;4.81;100.00
40245;BME280;25963;42.694;23.600;2022-12-18T12:00:15;96451.22;;;4.63;100.00
40245;BME280;25963;42.694;23.600;2022-12-18T12:24:06;96465.19;;;4.89;100.00
40245;BME280;25963;42.694;23.600;2022-12-18T12:27:39;96455.19;;;4.85;100.00
40245;BME280;25963;42.694;23.600;2022-12-18T12:30:05;96456.59;;;4.97;100.00
40245;BME280;25963;42.694;23.600;2022-12-18T12:38:43;96453.75;;;4.90;100.00
40245;BME280;25963;42.694;23.600;2022-12-18T12:41:14;96463.75;;;5.13;100.00
40245;BME280;25963;42.694;23.600;2022-12-18T12:44:01;96466.06;;;5.16;100.00
40245;BME280;25963;42.694;23.600;2022-12-18T12:46:31;96462.72;;;5.06;100.00
40245;BME280;25963;42.694;23.600;2022-12-18T12:49:02;96464.56;;;5.13;100.00
40245;BME280;25963;42.694;23.600;2022-12-18T12:51:34;96457.09;;;5.18;100.00
40245;BME280;25963;42.694;23.600;2022-12-18T12:54:02;96456.59;;;5.15;100.00
40245;BME280;25963;42.694;23.600;2022-12-18T12:56:41;96459.72;;;5.18;100.00
40245;BME280;25963;42.694;23.600;2022-12-18T12:59:15;96466.38;;;4.95;100.00
40245;BME280;25963;42.694;23.600;2022-12-18T13:05:17;96469.00;;;4.95;100.00
40245;BME280;25963;42.694;23.600;2022-12-18T13:07:59;96478.94;;;5.09;100.00
40245;BME280;25963;42.694;23.600;2022-12-18T13:13:12;96481.34;;;4.85;100.00
40245;BME280;25963;42.694;23.600;2022-12-18T13:15:45;96487.81;;;4.98;100.00
40245;BME280;25963;42.694;23.600;2022-12-18T13:23:27;96483.56;;;4.97;100.00
40245;BME280;25963;42.694;23.600;2022-12-18T13:31:02;96496.66;;;4.97;100.00
40245;BME280;25963;42.694;23.600;2022-12-18T13:36:00;96502.47;;;4.91;100.00
40245;BME280;25963;42.694;23.600;2022-12-18T13:38:40;96507.19;;;4.88;100.00
40245;BME280;25963;42.694;23.600;2022-12-18T13:43:56;96515.75;;;4.80;100.00
40245;BME280;25963;42.694;23.600;2022-12-18T13:46:46;96510.13;;;4.75;100.00
40245;BME280;25963;42.694;23.600;2022-12-18T13:51:41;96522.25;;;4.76;100.00
40245;BME280;25963;42.694;23.600;2022-12-18T13:54:37;96529.56;;;4.72;100.00
40245;BME280;25963;42.694;23.600;2022-12-18T13:57:05;96531.28;;;4.64;100.00
40245;BME280;25963;42.694;23.600;2022-12-18T13:59:48;96533.22;;;4.62;100.00
40245;BME280;25963;42.694;23.600;2022-12-18T14:02:21;96546.66;;;4.67;100.00
40245;BME280;25963;42.694;23.600;2022-12-18T14:04:48;96542.41;;;4.66;100.00
40245;BME280;25963;42.694;23.600;2022-12-18T14:09:43;96554.13;;;4.62;100.00
40245;BME280;25963;42.694;23.600;2022-12-18T14:12:31;96551.84;;;4.49;100.00
40245;BME280;25963;42.694;23.600;2022-12-18T14:15:33;96554.81;;;4.64;100.00
40245;BME280;25963;42.694;23.600;2022-12-18T14:20:34;96549.78;;;4.43;100.00
40245;BME280;25963;42.694;23.600;2022-12-18T14:22:59;96549.28;;;4.39;100.00
40245;BME280;25963;42.694;23.600;2022-12-18T14:25:30;96557.09;;;4.49;100.00
40245;BME280;25963;42.694;23.600;2022-12-18T14:30:41;96558.91;;;4.39;100.00
40245;BME280;25963;42.694;23.600;2022-12-18T14:35:35;96578.75;;;4.31;100.00
40245;BME280;25963;42.694;23.600;2022-12-18T14:40:52;96583.09;;;4.41;100.00
40245;BME280;25963;42.694;23.600;2022-12-18T14:43:18;96582.19;;;4.32;100.00
40245;BME280;25963;42.694;23.600;2022-12-18T14:45:45;96584.09;;;4.30;100.00
40245;BME280;25963;42.694;23.600;2022-12-18T14:50:37;96587.53;;;4.30;100.00
40245;BME280;25963;42.694;23.600;2022-12-18T14:53:03;96579.28;;;4.35;100.00
40245;BME280;25963;42.694;23.600;2022-12-18T14:55:28;96577.94;;;4.31;100.00
40245;BME280;25963;42.694;23.600;2022-12-18T14:57:55;96578.69;;;4.41;100.00
40245;BME280;25963;42.694;23.600;2022-12-18T15:00:24;96575.41;;;4.39;100.00
40245;BME280;25963;42.694;23.600;2022-12-18T15:02:56;96579.91;;;4.47;100.00
40245;BME280;25963;42.694;23.600;2022-12-18T15:05:29;96575.69;;;4.36;100.00
40245;BME280;25963;42.694;23.600;2022-12-18T15:07:58;96574.81;;;4.45;100.00
40245;BME280;25963;42.694;23.600;2022-12-18T15:10:29;96580.91;;;4.36;100.00